createdAt,value
2018-07-21T00:00:54.181Z,56.27
2018-07-21T00:01:54.102Z,56.27
2018-07-21T00:02:54.616Z,55.17
2018-07-21T00:03:54.084Z,55.97
2018-07-21T00:04:54.069Z,55.87
2018-07-21T00:05:54.124Z,55.87
2018-07-21T00:06:54.049Z,55.17
2018-07-21T00:07:54.042Z,56.46
2018-07-21T00:08:54.030Z,56.16
2018-07-21T00:09:54.017Z,56.27
2018-07-21T00:10:54.071Z,56.27
2018-07-21T00:11:53.996Z,54.86
2018-07-21T00:12:53.982Z,55.36
2018-07-21T00:13:53.972Z,54.97
2018-07-21T00:14:53.961Z,56.49
2018-07-21T00:15:54.016Z,54.86
2018-07-21T00:16:53.939Z,55.47
2018-07-21T00:17:53.933Z,55.27
2018-07-21T00:18:53.917Z,56.59
2018-07-21T00:19:53.908Z,56.29
2018-07-21T00:20:53.964Z,56.79
2018-07-21T00:21:54.615Z,56.70
2018-07-21T00:22:53.877Z,56.39
2018-07-21T00:23:54.616Z,56.89
2018-07-21T00:24:53.853Z,56.99
2018-07-21T00:25:53.908Z,56.22
2018-07-21T00:26:53.833Z,56.62
2018-07-21T00:27:53.820Z,56.32
2018-07-21T00:28:53.809Z,56.32
2018-07-21T00:29:53.800Z,56.59
2018-07-21T00:30:53.861Z,57.22
2018-07-21T00:31:53.781Z,56.82
2018-07-21T00:32:53.767Z,56.82
2018-07-21T00:33:53.756Z,56.52
2018-07-21T00:34:53.761Z,56.52
2018-07-21T00:35:53.740Z,56.22
2018-07-21T00:36:53.789Z,56.72
2018-07-21T00:37:53.714Z,56.32
2018-07-21T00:38:53.704Z,57.12
2018-07-21T00:39:53.692Z,56.82
2018-07-21T00:40:53.681Z,56.42
2018-07-21T00:41:53.737Z,56.52
2018-07-21T00:42:53.657Z,56.92
2018-07-21T00:43:53.648Z,56.52
2018-07-21T00:44:54.617Z,57.12
2018-07-21T00:45:53.628Z,56.52
2018-07-21T00:46:53.681Z,56.22
2018-07-21T00:47:53.604Z,56.65
2018-07-21T00:48:53.595Z,58.25
2018-07-21T00:49:53.584Z,56.62
2018-07-21T00:50:53.576Z,58.35
2018-07-21T00:51:53.628Z,58.15
2018-07-21T00:52:53.551Z,58.35
2018-07-21T00:53:53.541Z,57.55
2018-07-21T00:54:53.537Z,58.87
2018-07-21T00:55:53.518Z,58.15
2018-07-21T00:56:53.576Z,58.28
2018-07-21T00:57:53.499Z,58.98
2018-07-21T00:58:53.488Z,58.87
2018-07-21T00:59:53.476Z,58.68
2018-07-21T01:00:53.468Z,59.18
2018-07-21T01:01:53.523Z,59.58
2018-07-21T01:02:53.443Z,59.50
2018-07-21T01:03:53.443Z,58.70
2018-07-21T01:04:53.425Z,59.91
2018-07-21T01:05:54.115Z,60.11
2018-07-21T01:06:53.466Z,60.31
2018-07-21T01:07:53.393Z,59.91
2018-07-21T01:08:53.381Z,60.41
2018-07-21T01:09:53.368Z,60.01
2018-07-21T01:10:53.357Z,59.91
2018-07-21T01:11:53.415Z,59.41
2018-07-21T01:12:53.342Z,59.94
2018-07-21T01:13:53.324Z,60.51
2018-07-21T01:14:53.316Z,60.11
2018-07-21T01:15:53.302Z,59.23
2018-07-21T01:16:53.360Z,60.33
2018-07-21T01:17:53.285Z,59.74
2018-07-21T01:18:53.270Z,59.53
2018-07-21T01:19:53.261Z,60.33
2018-07-21T01:20:53.250Z,60.44
2018-07-21T01:21:53.305Z,60.74
2018-07-21T01:22:53.228Z,60.53
2018-07-21T01:23:53.217Z,60.33
2018-07-21T01:24:53.206Z,60.33
2018-07-21T01:25:53.195Z,59.74
2018-07-21T01:26:53.689Z,59.44
2018-07-21T01:27:53.175Z,60.44
2018-07-21T01:28:53.164Z,59.41
2018-07-21T01:29:53.156Z,58.94
2018-07-21T01:30:53.142Z,58.13
2018-07-21T01:31:53.197Z,59.94
2018-07-21T01:32:53.120Z,59.23
2018-07-21T01:33:53.109Z,59.94
2018-07-21T01:34:53.095Z,57.70
2018-07-21T01:35:53.088Z,59.33
2018-07-21T01:36:53.142Z,60.81
2018-07-21T01:37:53.064Z,59.20
2018-07-21T01:38:53.057Z,59.20
2018-07-21T01:39:53.046Z,59.41
2018-07-21T01:40:53.032Z,60.14
2018-07-21T01:41:53.089Z,59.74
2018-07-21T01:42:53.012Z,59.74
2018-07-21T01:43:53.004Z,58.94
2018-07-21T01:44:52.990Z,59.03
2018-07-21T01:45:52.981Z,59.94
2018-07-21T01:46:53.034Z,59.53
2018-07-21T01:47:53.616Z,59.74
2018-07-21T01:48:52.949Z,59.94
2018-07-21T01:49:52.935Z,59.74
2018-07-21T01:50:52.926Z,60.53
2018-07-21T01:51:52.985Z,59.66
2018-07-21T01:52:52.907Z,59.53
2018-07-21T01:53:52.894Z,59.33
2018-07-21T01:54:52.882Z,58.94
2018-07-21T01:55:52.871Z,59.23
2018-07-21T01:56:52.926Z,59.74
2018-07-21T01:57:52.849Z,60.14
2018-07-21T01:58:52.841Z,60.84
2018-07-21T01:59:52.827Z,60.47
2018-07-21T02:00:52.816Z,60.36
2018-07-21T02:01:52.871Z,60.47
2018-07-21T02:02:52.791Z,59.56
2018-07-21T02:03:52.783Z,60.86
2018-07-21T02:04:52.780Z,60.57
2018-07-21T02:05:52.769Z,60.27
2018-07-21T02:06:52.816Z,59.96
2018-07-21T02:07:52.744Z,60.69
2018-07-21T02:08:53.610Z,60.36
2018-07-21T02:09:52.719Z,60.06
2018-07-21T02:10:52.708Z,60.29
2018-07-21T02:11:52.766Z,59.49
2018-07-21T02:12:52.686Z,59.89
2018-07-21T02:13:52.679Z,59.66
2018-07-21T02:14:52.666Z,59.79
2018-07-21T02:15:52.656Z,59.96
2018-07-21T02:16:52.716Z,60.19
2018-07-21T02:17:52.631Z,60.27
2018-07-21T02:19:00.761Z,60.10
2018-07-21T02:20:00.761Z,60.60
2018-07-21T02:20:52.600Z,60.60
2018-07-21T02:21:52.595Z,61.19
2018-07-21T02:22:52.778Z,60.80
2018-07-21T02:23:52.610Z,61.00
2018-07-21T02:25:00.689Z,61.00
2018-07-21T02:29:50.174Z,59.79
2018-07-21T02:30:50.125Z,59.79
2018-07-21T02:31:50.083Z,59.49
2018-07-21T02:32:50.140Z,58.99
2018-07-21T02:33:50.064Z,60.62
2018-07-21T02:34:50.058Z,60.29
2018-07-21T02:35:50.039Z,60.49
2018-07-21T02:36:50.033Z,60.80
2018-07-21T02:37:50.086Z,60.52
2018-07-21T02:38:50.006Z,60.12
2018-07-21T02:39:49.994Z,60.22
2018-07-21T02:40:49.985Z,60.22
2018-07-21T02:41:49.980Z,60.93
2018-07-21T02:42:50.030Z,59.42
2018-07-21T02:43:50.706Z,58.92
2018-07-21T02:44:49.947Z,59.22
2018-07-21T02:45:49.933Z,59.42
2018-07-21T02:46:49.922Z,59.62
2018-07-21T02:47:49.975Z,60.02
2018-07-21T02:48:49.898Z,59.72
2018-07-21T02:49:50.706Z,60.22
2018-07-21T02:50:49.881Z,60.52
2018-07-21T02:51:49.865Z,60.42
2018-07-21T02:52:49.924Z,60.02
2018-07-21T02:53:49.847Z,60.35
2018-07-21T02:54:49.842Z,60.45
2018-07-21T02:55:49.825Z,61.05
2018-07-21T02:56:49.825Z,60.55
2018-07-21T02:57:49.874Z,60.55
2018-07-21T02:58:49.796Z,59.85
2018-07-21T02:59:49.783Z,60.75
2018-07-21T03:00:49.772Z,60.15
2018-07-21T03:01:49.761Z,60.05
2018-07-21T03:02:49.817Z,60.25
2018-07-21T03:03:49.739Z,60.15
2018-07-21T03:04:49.729Z,59.75
2018-07-21T03:05:49.720Z,59.05
2018-07-21T03:06:49.709Z,60.65
2018-07-21T03:07:49.764Z,59.85
2018-07-21T03:08:49.684Z,60.15
2018-07-21T03:09:49.744Z,59.95
2018-07-21T03:10:50.202Z,60.96
2018-07-21T03:11:49.651Z,60.35
2018-07-21T03:12:49.711Z,59.85
2018-07-21T03:13:49.629Z,59.85
2018-07-21T03:14:49.621Z,60.65
2018-07-21T03:15:49.612Z,61.15
2018-07-21T03:16:49.598Z,61.05
2018-07-21T03:17:49.657Z,61.05
2018-07-21T03:18:49.579Z,60.85
2018-07-21T03:19:49.565Z,61.15
2018-07-21T03:20:49.554Z,61.58
2018-07-21T03:21:49.543Z,61.15
2018-07-21T03:22:49.609Z,61.79
2018-07-21T03:23:49.523Z,61.58
2018-07-21T03:24:49.512Z,61.29
2018-07-21T03:25:49.501Z,61.88
2018-07-21T03:26:49.490Z,61.08
2018-07-21T03:27:49.545Z,61.79
2018-07-21T03:28:49.474Z,61.79
2018-07-21T03:29:49.459Z,61.99
2018-07-21T03:30:49.455Z,61.11
2018-07-21T03:31:50.200Z,61.82
2018-07-21T03:32:49.485Z,61.38
2018-07-21T03:33:49.415Z,61.99
2018-07-21T03:34:49.406Z,62.32
2018-07-21T03:35:49.393Z,62.39
2018-07-21T03:36:49.387Z,61.99
2018-07-21T03:37:49.437Z,62.32
2018-07-21T03:38:49.360Z,62.52
2018-07-21T03:39:49.351Z,62.22
2018-07-21T03:40:49.340Z,61.91
2018-07-21T03:41:49.324Z,62.52
2018-07-21T03:42:49.382Z,62.32
2018-07-21T03:43:49.307Z,62.52
2018-07-21T03:44:49.296Z,63.02
2018-07-21T03:45:49.283Z,62.22
2018-07-21T03:46:49.271Z,62.72
2018-07-21T03:47:49.329Z,63.32
2018-07-21T03:48:49.270Z,63.12
2018-07-21T03:49:49.241Z,62.92
2018-07-21T03:50:49.230Z,62.55
2018-07-21T03:51:49.221Z,62.45
2018-07-21T03:52:49.775Z,62.65
2018-07-21T03:53:57.263Z,62.92
2018-07-21T03:54:49.185Z,63.15
2018-07-21T03:55:57.779Z,63.45
2018-07-21T03:56:49.163Z,63.35
2018-07-21T03:57:56.739Z,63.15
2018-07-21T03:58:49.147Z,63.15
2018-07-21T03:59:57.716Z,63.53
2018-07-21T04:00:49.120Z,63.65
2018-07-21T04:01:49.112Z,63.65
2018-07-21T04:02:56.706Z,62.55
2018-07-21T04:03:49.089Z,63.45
2018-07-21T04:04:49.075Z,62.24
2018-07-21T04:05:49.069Z,63.76
2018-07-21T04:06:49.056Z,63.42
2018-07-21T04:07:49.050Z,63.53
2018-07-21T04:08:57.274Z,62.24
2018-07-21T04:09:57.168Z,63.65
2018-07-21T04:10:49.020Z,61.94
2018-07-21T04:11:49.006Z,62.22
2018-07-21T04:12:48.991Z,62.82
2018-07-21T04:13:49.045Z,63.62
2018-07-21T04:14:48.968Z,63.53
2018-07-21T04:15:48.959Z,63.85
2018-07-21T04:16:48.946Z,63.76
2018-07-21T04:17:48.935Z,63.82
2018-07-21T04:18:48.992Z,62.15
2018-07-21T04:19:48.915Z,62.15
2018-07-21T04:20:48.910Z,62.55
2018-07-21T04:21:48.890Z,62.24
2018-07-21T04:22:48.884Z,61.44
2018-07-21T04:23:48.934Z,62.45
2018-07-21T04:24:48.857Z,62.35
2018-07-21T04:25:48.849Z,63.65
2018-07-21T04:26:48.838Z,63.73
2018-07-21T04:27:48.827Z,63.05
2018-07-21T04:28:48.882Z,62.22
2018-07-21T04:29:48.804Z,62.32
2018-07-21T04:30:49.451Z,62.02
2018-07-21T04:31:48.801Z,62.55
2018-07-21T04:32:48.771Z,62.35
2018-07-21T04:33:48.826Z,62.15
2018-07-21T04:34:48.749Z,62.02
2018-07-21T04:35:48.738Z,62.05
2018-07-21T04:36:48.729Z,62.45
2018-07-21T04:37:48.721Z,61.54
2018-07-21T04:38:48.771Z,60.64
2018-07-21T04:39:48.701Z,62.24
2018-07-21T04:40:48.683Z,62.35
2018-07-21T04:41:48.671Z,62.42
2018-07-21T04:42:48.661Z,62.05
2018-07-21T04:43:48.716Z,62.45
2018-07-21T04:44:48.638Z,62.05
2018-07-21T04:45:48.628Z,62.65
2018-07-21T04:46:48.616Z,62.05
2018-07-21T04:47:48.607Z,61.85
2018-07-21T04:48:48.660Z,62.55
2018-07-21T04:49:48.583Z,62.35
2018-07-21T04:50:48.572Z,62.35
2018-07-21T04:51:49.454Z,62.35
2018-07-21T04:52:48.550Z,62.15
2018-07-21T04:53:48.610Z,62.35
2018-07-21T04:54:48.533Z,62.45
2018-07-21T04:55:48.519Z,63.65
2018-07-21T04:56:48.508Z,62.95
2018-07-21T04:57:48.498Z,63.85
2018-07-21T04:58:48.550Z,63.56
2018-07-21T04:59:48.478Z,63.45
2018-07-21T05:00:48.506Z,62.55
2018-07-21T05:01:48.457Z,62.45
2018-07-21T05:02:48.439Z,63.76
2018-07-21T05:03:48.494Z,63.15
2018-07-21T05:04:48.947Z,63.05
2018-07-21T05:05:48.408Z,61.65
2018-07-21T05:06:48.403Z,62.35
2018-07-21T05:07:48.394Z,62.55
2018-07-21T05:08:48.442Z,62.15
2018-07-21T05:09:48.364Z,63.15
2018-07-21T05:10:48.356Z,63.05
2018-07-21T05:11:48.345Z,62.65
2018-07-21T05:12:48.949Z,61.74
2018-07-21T05:13:48.386Z,62.72
2018-07-21T05:14:48.309Z,62.22
2018-07-21T05:15:48.300Z,62.02
2018-07-21T05:16:48.292Z,62.12
2018-07-21T05:17:48.281Z,62.22
2018-07-21T05:18:48.334Z,61.82
2018-07-21T05:19:48.296Z,62.72
2018-07-21T05:20:48.245Z,62.02
2018-07-21T05:21:48.234Z,62.52
2018-07-21T05:22:48.223Z,61.82
2018-07-21T05:23:48.281Z,61.91
2018-07-21T05:24:48.201Z,61.41
2018-07-21T05:25:48.190Z,61.51
2018-07-21T05:26:48.179Z,61.61
2018-07-21T05:27:48.166Z,62.02
2018-07-21T05:28:48.223Z,61.82
2018-07-21T05:29:48.146Z,61.71
2018-07-21T05:30:48.135Z,61.82
2018-07-21T05:31:48.124Z,62.02
2018-07-21T05:32:48.113Z,61.61
2018-07-21T05:33:48.523Z,62.05
2018-07-21T05:34:48.093Z,62.42
2018-07-21T05:35:48.082Z,62.32
2018-07-21T05:36:48.069Z,62.02
2018-07-21T05:37:48.063Z,62.15
2018-07-21T05:38:48.126Z,62.42
2018-07-21T05:39:48.042Z,61.91
2018-07-21T05:40:48.033Z,61.82
2018-07-21T05:41:48.016Z,61.91
2018-07-21T05:42:48.005Z,62.32
2018-07-21T05:43:47.994Z,61.51
2018-07-21T05:44:48.055Z,61.51
2018-07-21T05:45:47.972Z,61.21
2018-07-21T05:46:47.961Z,61.61
2018-07-21T05:47:47.958Z,61.61
2018-07-21T05:48:47.943Z,61.71
2018-07-21T05:49:47.998Z,60.51
2018-07-21T05:50:47.922Z,61.49
2018-07-21T05:51:47.911Z,61.51
2018-07-21T05:52:47.902Z,61.41
2018-07-21T05:53:47.892Z,61.11
2018-07-21T05:54:48.028Z,61.79
2018-07-21T05:55:47.873Z,61.61
2018-07-21T05:56:47.856Z,61.69
2018-07-21T05:57:47.843Z,61.69
2018-07-21T05:58:47.833Z,60.08
2018-07-21T05:59:47.891Z,61.49
2018-07-21T06:00:47.809Z,59.98
2018-07-21T06:01:47.803Z,61.18
2018-07-21T06:02:47.852Z,61.55
2018-07-21T06:03:47.781Z,60.55
2018-07-21T06:04:47.840Z,60.85
2018-07-21T06:05:47.769Z,60.75
2018-07-21T06:06:47.748Z,60.35
2018-07-21T06:07:47.743Z,60.15
2018-07-21T06:08:55.933Z,60.02
2018-07-21T06:09:55.854Z,60.02
2018-07-21T06:10:56.595Z,59.95
2018-07-21T06:11:55.234Z,60.22
2018-07-21T06:12:47.689Z,59.42
2018-07-21T06:13:47.673Z,59.22
2018-07-21T06:14:47.726Z,58.62
2018-07-21T06:15:47.654Z,58.31
2018-07-21T06:16:55.786Z,60.02
2018-07-21T06:17:55.744Z,59.29
2018-07-21T06:18:55.754Z,58.89
2018-07-21T06:19:55.815Z,57.98
2018-07-21T06:20:55.663Z,57.48
2018-07-21T06:21:55.112Z,57.79
2018-07-21T06:22:47.577Z,57.98
2018-07-21T06:23:47.610Z,58.06
2018-07-21T06:24:47.615Z,57.06
2018-07-21T06:25:47.543Z,56.05
2018-07-21T06:26:47.530Z,55.95
2018-07-21T06:27:47.527Z,55.35
2018-07-21T06:28:47.510Z,56.23
2018-07-21T06:29:47.566Z,56.02
2018-07-21T06:30:47.488Z,56.43
2018-07-21T06:31:47.477Z,57.23
2018-07-21T06:32:47.479Z,56.30
2018-07-21T06:33:47.455Z,56.40
2018-07-21T06:34:47.510Z,56.50
2018-07-21T06:35:47.440Z,56.30
2018-07-21T06:36:47.427Z,55.30
2018-07-21T06:37:47.411Z,57.07
2018-07-21T06:38:47.403Z,56.57
2018-07-21T06:39:47.457Z,56.85
2018-07-21T06:40:47.383Z,56.85
2018-07-21T06:41:47.372Z,56.65
2018-07-21T06:42:48.294Z,55.92
2018-07-21T06:43:47.358Z,55.22
2018-07-21T06:44:47.410Z,54.62
2018-07-21T06:45:47.328Z,55.82
2018-07-21T06:46:47.319Z,55.92
2018-07-21T06:47:47.308Z,54.82
2018-07-21T06:48:47.297Z,54.90
2018-07-21T06:49:47.350Z,55.29
2018-07-21T06:50:47.273Z,55.29
2018-07-21T06:51:47.271Z,55.49
2018-07-21T06:52:47.250Z,54.27
2018-07-21T06:53:47.250Z,52.87
2018-07-21T06:54:47.297Z,53.64
2018-07-21T06:55:47.220Z,52.84
2018-07-21T06:56:47.209Z,53.14
2018-07-21T06:57:47.200Z,52.42
2018-07-21T06:58:47.187Z,52.32
2018-07-21T06:59:47.254Z,53.12
2018-07-21T07:00:47.165Z,51.40
2018-07-21T07:01:47.161Z,51.50
2018-07-21T07:02:47.147Z,50.67
2018-07-21T07:03:47.802Z,49.75
2018-07-21T07:04:47.267Z,49.51
2018-07-21T07:05:47.115Z,48.80
2018-07-21T07:06:47.104Z,48.88
2018-07-21T07:07:47.097Z,47.09
2018-07-21T07:08:47.088Z,47.96
2018-07-21T07:09:47.131Z,47.84
2018-07-21T07:10:47.061Z,47.27
2018-07-21T07:11:47.054Z,48.04
2018-07-21T07:12:47.045Z,46.95
2018-07-21T07:13:47.034Z,47.05
2018-07-21T07:14:47.084Z,46.65
2018-07-21T07:15:47.009Z,47.22
2018-07-21T07:16:46.998Z,46.92
2018-07-21T07:17:46.987Z,46.83
2018-07-21T07:18:46.976Z,46.72
2018-07-21T07:19:47.058Z,46.83
2018-07-21T07:20:47.015Z,46.62
2018-07-21T07:21:46.951Z,46.11
2018-07-21T07:22:46.934Z,46.20
2018-07-21T07:23:46.923Z,45.89
2018-07-21T07:24:47.800Z,45.98
2018-07-21T07:25:46.962Z,45.49
2018-07-21T07:26:46.891Z,45.29
2018-07-21T07:27:46.879Z,44.59
2018-07-21T07:28:46.873Z,45.98
2018-07-21T07:29:46.860Z,45.89
2018-07-21T07:30:46.921Z,45.07
2018-07-21T07:31:46.843Z,44.57
2018-07-21T07:32:46.832Z,44.97
2018-07-21T07:33:46.818Z,45.27
2018-07-21T07:34:46.810Z,44.67
2018-07-21T07:35:46.869Z,45.49
2018-07-21T07:36:46.787Z,45.17
2018-07-21T07:37:46.781Z,45.47
2018-07-21T07:38:46.768Z,45.76
2018-07-21T07:39:46.754Z,45.07
2018-07-21T07:40:46.818Z,46.56
2018-07-21T07:41:46.739Z,46.36
2018-07-21T07:42:46.727Z,46.16
2018-07-21T07:43:46.722Z,45.27
2018-07-21T07:44:46.708Z,45.54
2018-07-21T07:45:47.364Z,45.12
2018-07-21T07:46:46.687Z,45.10
2018-07-21T07:47:46.674Z,44.71
2018-07-21T07:48:46.666Z,44.49
2018-07-21T07:49:46.655Z,44.07
2018-07-21T07:50:46.713Z,44.07
2018-07-21T07:51:46.633Z,44.37
2018-07-21T07:52:46.626Z,43.85
2018-07-21T07:53:46.617Z,43.43
2018-07-21T07:54:46.605Z,42.72
2018-07-21T07:55:46.664Z,42.13
2018-07-21T07:56:46.593Z,42.13
2018-07-21T07:57:46.574Z,42.52
2018-07-21T07:58:46.563Z,42.13
2018-07-21T07:59:46.555Z,42.32
2018-07-21T08:00:46.608Z,42.82
2018-07-21T08:01:46.533Z,41.93
2018-07-21T08:02:46.525Z,42.13
2018-07-21T08:03:46.519Z,42.52
2018-07-21T08:04:46.506Z,42.35
2018-07-21T08:05:46.563Z,43.53
2018-07-21T08:06:47.304Z,42.44
2018-07-21T08:07:46.472Z,42.82
2018-07-21T08:08:46.472Z,42.30
2018-07-21T08:09:46.455Z,42.90
2018-07-21T08:10:46.513Z,42.13
2018-07-21T08:11:46.435Z,42.32
2018-07-21T08:12:46.427Z,42.72
2018-07-21T08:13:46.414Z,42.90
2018-07-21T08:14:46.406Z,43.29
2018-07-21T08:15:46.464Z,42.19
2018-07-21T08:16:46.386Z,41.77
2018-07-21T08:17:46.377Z,41.59
2018-07-21T08:18:46.372Z,41.67
2018-07-21T08:19:46.358Z,42.24
2018-07-21T08:20:46.411Z,40.25
2018-07-21T08:21:46.340Z,39.94
2018-07-21T08:22:46.325Z,39.73
2018-07-21T08:23:46.314Z,39.73
2018-07-21T08:24:46.308Z,39.52
2018-07-21T08:25:46.367Z,39.72
2018-07-21T08:26:46.289Z,39.72
2018-07-21T08:27:46.800Z,40.23
2018-07-21T08:28:46.269Z,39.72
2018-07-21T08:29:46.261Z,39.12
2018-07-21T08:30:46.322Z,38.79
2018-07-21T08:31:46.244Z,38.09
2018-07-21T08:32:46.230Z,38.48
2018-07-21T08:33:46.219Z,38.18
2018-07-21T08:34:46.281Z,37.99
2018-07-21T08:35:46.272Z,38.07
2018-07-21T08:36:46.195Z,37.67
2018-07-21T08:37:46.183Z,36.97
2018-07-21T08:38:46.178Z,36.77
2018-07-21T08:39:46.166Z,36.85
2018-07-21T08:40:46.224Z,37.05
2018-07-21T08:41:46.147Z,36.54
2018-07-21T08:42:46.139Z,35.93
2018-07-21T08:43:46.133Z,36.21
2018-07-21T08:44:46.122Z,35.72
2018-07-21T08:45:46.180Z,35.74
2018-07-21T08:46:46.105Z,37.42
2018-07-21T08:47:46.094Z,36.83
2018-07-21T08:48:46.801Z,37.07
2018-07-21T08:49:46.087Z,37.36
2018-07-21T08:50:46.132Z,36.85
2018-07-21T08:51:46.068Z,37.24
2018-07-21T08:52:46.049Z,37.26
2018-07-21T08:53:46.038Z,36.87
2018-07-21T08:54:46.030Z,37.26
2018-07-21T08:55:46.163Z,37.26
2018-07-21T08:56:46.011Z,35.85
2018-07-21T08:57:46.005Z,36.15
2018-07-21T08:58:45.994Z,36.22
2018-07-21T08:59:45.985Z,36.30
2018-07-21T09:00:46.041Z,35.72
2018-07-21T09:01:45.966Z,36.52
2018-07-21T09:02:45.968Z,37.44
2018-07-21T09:03:45.947Z,36.95
2018-07-21T09:04:45.935Z,36.07
2018-07-21T09:05:46.028Z,37.16
2018-07-21T09:06:45.919Z,38.09
2018-07-21T09:07:45.910Z,38.38
2018-07-21T09:08:53.431Z,38.30
2018-07-21T09:09:45.893Z,38.30
2018-07-21T09:10:45.886Z,39.09
2018-07-21T09:11:45.943Z,38.58
2018-07-21T09:12:45.863Z,38.09
2018-07-21T09:13:45.856Z,38.78
2018-07-21T09:14:45.841Z,37.97
2018-07-21T09:15:45.835Z,37.87
2018-07-21T09:16:45.896Z,38.48
2018-07-21T09:17:45.813Z,36.85
2018-07-21T09:18:45.805Z,37.97
2018-07-21T09:19:45.794Z,37.65
2018-07-21T09:20:45.785Z,36.34
2018-07-21T09:21:45.846Z,35.95
2018-07-21T09:22:45.769Z,36.42
2018-07-21T09:23:45.758Z,35.52
2018-07-21T09:24:45.746Z,35.52
2018-07-21T09:25:45.741Z,35.31
2018-07-21T09:26:45.807Z,36.01
2018-07-21T09:27:45.726Z,35.70
2018-07-21T09:28:45.710Z,35.91
2018-07-21T09:29:46.351Z,36.21
2018-07-21T09:30:45.691Z,34.98
2018-07-21T09:31:45.746Z,34.20
2018-07-21T09:32:45.680Z,34.00
2018-07-21T09:33:45.664Z,34.45
2018-07-21T09:34:45.663Z,33.97
2018-07-21T09:35:45.644Z,33.64
2018-07-21T09:36:45.699Z,33.94
2018-07-21T09:37:45.635Z,33.84
2018-07-21T09:38:45.621Z,33.75
2018-07-21T09:39:45.607Z,34.05
2018-07-21T09:40:45.599Z,33.95
2018-07-21T09:41:45.659Z,34.54
2018-07-21T09:42:45.585Z,33.34
2018-07-21T09:43:45.574Z,32.84
2018-07-21T09:44:45.565Z,32.46
2018-07-21T09:45:45.554Z,32.66
2018-07-21T09:46:45.609Z,32.86
2018-07-21T09:47:45.537Z,32.55
2018-07-21T09:48:45.532Z,32.76
2018-07-21T09:49:45.518Z,32.53
2018-07-21T09:50:46.353Z,32.40
2018-07-21T09:51:45.572Z,31.30
2018-07-21T09:52:45.493Z,31.48
2018-07-21T09:53:45.491Z,30.68
2018-07-21T09:54:45.476Z,31.16
2018-07-21T09:55:45.508Z,30.08
2018-07-21T09:56:45.525Z,29.88
2018-07-21T09:57:53.584Z,29.66
2018-07-21T09:58:53.589Z,29.47
2018-07-21T09:59:45.434Z,29.16
2018-07-21T10:00:45.432Z,28.08
2018-07-21T10:01:45.486Z,28.17
2018-07-21T10:02:45.414Z,27.68
2018-07-21T10:03:45.411Z,27.58
2018-07-21T10:04:45.407Z,26.62
2018-07-21T10:05:53.533Z,27.12
2018-07-21T10:06:53.609Z,28.19
2018-07-21T10:08:00.509Z,27.59
2018-07-21T10:08:52.886Z,27.19
2018-07-21T10:09:53.459Z,27.37
2018-07-21T10:10:45.347Z,27.07
2018-07-21T10:11:45.408Z,27.15
2018-07-21T10:12:45.330Z,26.95
2018-07-21T10:13:45.324Z,26.93
2018-07-21T10:14:45.316Z,25.95
2018-07-21T10:15:45.319Z,25.77
2018-07-21T10:16:45.365Z,26.16
2018-07-21T10:17:45.297Z,25.76
2018-07-21T10:18:45.292Z,25.95
2018-07-21T10:19:45.285Z,26.45
2018-07-21T10:20:45.271Z,26.75
2018-07-21T10:21:45.384Z,26.56
2018-07-21T10:22:45.257Z,26.74
2018-07-21T10:23:45.252Z,26.25
2018-07-21T10:24:45.246Z,26.72
2018-07-21T10:25:45.237Z,25.26
2018-07-21T10:26:45.650Z,26.62
2018-07-21T10:27:45.217Z,25.16
2018-07-21T10:28:45.215Z,25.94
2018-07-21T10:29:45.207Z,26.82
2018-07-21T10:30:46.070Z,26.06
2018-07-21T10:31:45.264Z,26.84
2018-07-21T10:32:45.184Z,26.53
2018-07-21T10:33:45.181Z,25.55
2018-07-21T10:34:45.167Z,25.26
2018-07-21T10:35:45.161Z,25.93
2018-07-21T10:36:45.224Z,25.32
2018-07-21T10:37:45.144Z,23.76
2018-07-21T10:38:45.142Z,23.28
2018-07-21T10:39:45.131Z,24.04
2018-07-21T10:40:45.125Z,24.32
2018-07-21T10:41:45.187Z,23.92
2018-07-21T10:42:45.114Z,23.15
2018-07-21T10:43:45.102Z,22.94
2018-07-21T10:44:45.139Z,23.13
2018-07-21T10:45:45.091Z,22.05
2018-07-21T10:46:45.159Z,22.16
2018-07-21T10:47:45.074Z,22.26
2018-07-21T10:48:45.134Z,22.34
2018-07-21T10:49:45.072Z,22.63
2018-07-21T10:50:45.074Z,21.66
2018-07-21T10:51:45.565Z,22.03
2018-07-21T10:52:45.109Z,22.41
2018-07-21T10:53:45.045Z,20.57
2018-07-21T10:54:45.029Z,21.72
2018-07-21T10:55:45.026Z,21.23
2018-07-21T10:56:45.017Z,21.23
2018-07-21T10:57:45.075Z,21.62
2018-07-21T10:58:45.000Z,21.42
2018-07-21T10:59:44.995Z,20.65
2018-07-21T11:00:44.986Z,21.12
2018-07-21T11:01:44.980Z,21.32
2018-07-21T11:02:45.042Z,20.84
2018-07-21T11:03:44.975Z,20.83
2018-07-21T11:04:44.966Z,21.59
2018-07-21T11:05:44.957Z,21.01
2018-07-21T11:06:44.946Z,19.85
2018-07-21T11:07:45.007Z,19.85
2018-07-21T11:08:44.932Z,20.41
2018-07-21T11:09:44.930Z,19.84
2018-07-21T11:10:44.924Z,19.84
2018-07-21T11:11:44.915Z,19.84
2018-07-21T11:12:45.141Z,20.32
2018-07-21T11:13:44.904Z,20.40
2018-07-21T11:14:44.898Z,20.31
2018-07-21T11:15:44.892Z,19.74
2018-07-21T11:16:44.883Z,20.03
2018-07-21T11:17:44.947Z,20.04
2018-07-21T11:18:44.870Z,20.12
2018-07-21T11:19:44.872Z,19.65
2018-07-21T11:20:44.864Z,20.21
2018-07-21T11:21:44.854Z,19.34
2018-07-21T11:22:44.913Z,19.53
2018-07-21T11:23:44.841Z,20.20
2018-07-21T11:24:44.835Z,18.86
2018-07-21T11:25:44.829Z,20.10
2018-07-21T11:26:44.822Z,19.82
2018-07-21T11:27:44.882Z,19.92
2018-07-21T11:28:44.818Z,19.15
2018-07-21T11:29:44.804Z,19.82
2018-07-21T11:30:44.798Z,19.90
2018-07-21T11:31:44.792Z,19.15
2018-07-21T11:32:44.851Z,19.42
2018-07-21T11:33:45.549Z,18.66
2018-07-21T11:34:44.772Z,20.09
2018-07-21T11:35:44.943Z,20.66
2018-07-21T11:36:44.777Z,19.89
2018-07-21T11:37:44.821Z,18.84
2018-07-21T11:38:44.753Z,18.84
2018-07-21T11:39:44.741Z,19.79
2018-07-21T11:40:44.735Z,19.11
2018-07-21T11:41:44.727Z,18.93
2018-07-21T11:42:44.790Z,18.16
2018-07-21T11:43:44.713Z,18.95
2018-07-21T11:44:44.713Z,19.34
2018-07-21T11:45:44.701Z,19.65
2018-07-21T11:46:44.695Z,19.85
2018-07-21T11:47:44.756Z,20.72
2018-07-21T11:48:44.692Z,20.61
2018-07-21T11:49:44.679Z,19.75
2018-07-21T11:50:44.670Z,20.12
2018-07-21T11:51:44.667Z,18.96
2018-07-21T11:52:44.727Z,19.82
2018-07-21T11:53:44.651Z,19.04
2018-07-21T11:54:45.534Z,19.03
2018-07-21T11:55:44.646Z,18.84
2018-07-21T11:56:44.634Z,18.65
2018-07-21T11:57:44.697Z,18.16
2018-07-21T11:58:44.619Z,18.93
2018-07-21T11:59:44.621Z,18.35
2018-07-21T12:00:44.608Z,18.91
2018-07-21T12:01:44.604Z,17.95
2018-07-21T12:02:44.664Z,18.23
2018-07-21T12:03:44.589Z,18.33
2018-07-21T12:04:44.579Z,18.23
2018-07-21T12:05:44.651Z,17.76
2018-07-21T12:06:44.583Z,18.61
2018-07-21T12:07:44.628Z,18.13
2018-07-21T12:08:44.560Z,18.33
2018-07-21T12:09:44.547Z,18.70
2018-07-21T12:10:44.544Z,17.94
2018-07-21T12:11:44.538Z,18.35
2018-07-21T12:12:44.597Z,18.35
2018-07-21T12:13:44.525Z,17.97
2018-07-21T12:14:44.518Z,18.16
2018-07-21T12:15:45.028Z,18.16
2018-07-21T12:16:44.504Z,18.45
2018-07-21T12:17:44.560Z,18.54
2018-07-21T12:18:44.493Z,18.73
2018-07-21T12:19:44.487Z,18.72
2018-07-21T12:20:44.482Z,18.15
2018-07-21T12:21:44.476Z,17.76
2018-07-21T12:22:44.533Z,17.66
2018-07-21T12:23:44.464Z,18.24
2018-07-21T12:24:44.453Z,18.25
2018-07-21T12:25:44.453Z,19.11
2018-07-21T12:26:44.447Z,19.11
2018-07-21T12:27:44.507Z,17.95
2018-07-21T12:28:44.431Z,19.38
2018-07-21T12:29:44.424Z,18.62
2018-07-21T12:30:44.419Z,18.23
2018-07-21T12:31:44.418Z,18.04
2018-07-21T12:32:44.476Z,18.03
2018-07-21T12:33:44.519Z,18.13
2018-07-21T12:34:44.454Z,18.91
2018-07-21T12:35:44.388Z,18.44
2018-07-21T12:36:45.013Z,18.33
2018-07-21T12:37:44.386Z,17.76
2018-07-21T12:38:44.437Z,18.24
2018-07-21T12:39:44.360Z,18.06
2018-07-21T12:40:44.356Z,18.93
2018-07-21T12:41:44.351Z,18.55
2018-07-21T12:42:44.343Z,18.74
2018-07-21T12:43:44.414Z,19.32
2018-07-21T12:44:44.375Z,18.54
2018-07-21T12:45:44.322Z,18.54
2018-07-21T12:46:44.318Z,18.54
2018-07-21T12:47:44.311Z,18.05
2018-07-21T12:48:44.369Z,18.24
2018-07-21T12:49:44.298Z,17.95
2018-07-21T12:50:44.288Z,18.33
2018-07-21T12:51:44.283Z,18.33
2018-07-21T12:52:44.277Z,19.20
2018-07-21T12:53:44.335Z,18.74
2018-07-21T12:54:44.266Z,18.54
2018-07-21T12:55:44.258Z,17.96
2018-07-21T12:56:44.249Z,17.97